createdAt,value
2023-03-08T00:00:21.131Z,3.30
2023-03-08T00:02:49.092Z,8.10
2023-03-08T00:05:18.161Z,4.33
2023-03-08T00:07:45.902Z,3.33
2023-03-08T00:10:14.438Z,5.33
2023-03-08T00:12:42.009Z,5.23
2023-03-08T00:15:10.057Z,7.63
2023-03-08T00:17:38.459Z,4.73
2023-03-08T00:20:10.208Z,2.60
2023-03-08T00:22:41.667Z,8.20
2023-03-08T00:25:10.474Z,9.13
2023-03-08T00:27:38.844Z,3.47
2023-03-08T00:30:07.417Z,2.90
2023-03-08T00:32:35.024Z,2.53
2023-03-08T00:35:02.842Z,3.60
2023-03-08T00:37:31.439Z,3.30
2023-03-08T00:40:00.334Z,3.40
2023-03-08T00:42:27.831Z,5.17
2023-03-08T00:44:55.412Z,2.77
2023-03-08T00:47:23.089Z,4.87
2023-03-08T00:49:50.678Z,6.50
2023-03-08T00:52:18.329Z,2.57
2023-03-08T00:54:46.133Z,4.83
2023-03-08T00:57:16.383Z,4.00
2023-03-08T00:59:44.330Z,8.70
2023-03-08T01:02:13.416Z,5.20
2023-03-08T01:04:41.100Z,3.00
2023-03-08T01:07:08.743Z,6.60
2023-03-08T01:09:38.736Z,3.43
2023-03-08T01:12:07.187Z,4.80
2023-03-08T01:14:36.026Z,10.50
2023-03-08T01:17:06.483Z,6.13
2023-03-08T01:19:34.117Z,7.47
2023-03-08T01:22:01.787Z,7.63
2023-03-08T01:24:29.322Z,2.63
2023-03-08T01:27:00.851Z,2.43
2023-03-08T01:29:30.382Z,3.53
2023-03-08T01:32:01.804Z,5.30
2023-03-08T01:34:32.801Z,5.57
2023-03-08T01:37:00.550Z,4.27
2023-03-08T01:39:28.043Z,6.77
2023-03-08T01:41:55.686Z,15.97
2023-03-08T01:44:23.516Z,4.73
2023-03-08T01:46:52.230Z,6.87
2023-03-08T01:49:22.943Z,10.03
2023-03-08T01:51:53.364Z,4.60
2023-03-08T01:54:27.528Z,3.93
2023-03-08T01:57:01.787Z,7.03
2023-03-08T01:59:31.701Z,3.90
2023-03-08T02:02:00.076Z,3.97
2023-03-08T02:04:29.839Z,4.33
2023-03-08T02:06:58.163Z,5.53
2023-03-08T02:09:27.524Z,3.33
2023-03-08T02:11:56.022Z,4.37
2023-03-08T02:14:24.045Z,7.23
2023-03-08T02:16:52.372Z,4.00
2023-03-08T02:19:23.415Z,4.10
2023-03-08T02:21:52.726Z,4.03
2023-03-08T02:24:23.095Z,4.10
2023-03-08T02:26:52.468Z,5.63
2023-03-08T02:29:20.046Z,7.80
2023-03-08T02:31:47.581Z,6.63
2023-03-08T02:34:15.051Z,9.10
2023-03-08T02:36:42.756Z,8.33
2023-03-08T02:39:12.970Z,3.80
2023-03-08T02:41:44.779Z,4.43
2023-03-08T02:44:14.448Z,6.03
2023-03-08T02:46:41.969Z,7.40
2023-03-08T02:49:10.088Z,5.93
2023-03-08T02:51:37.547Z,6.00
2023-03-08T02:54:05.533Z,5.07
2023-03-08T02:56:33.376Z,5.83
2023-03-08T02:59:02.200Z,6.90
2023-03-08T03:01:29.918Z,7.50
2023-03-08T03:03:57.453Z,4.90
2023-03-08T03:06:25.163Z,5.17
2023-03-08T03:08:56.728Z,7.77
2023-03-08T03:11:24.819Z,7.00
2023-03-08T03:13:57.343Z,5.13
2023-03-08T03:16:29.416Z,8.77
2023-03-08T03:18:57.463Z,5.77
2023-03-08T03:21:25.543Z,8.10
2023-03-08T03:23:55.036Z,4.57
2023-03-08T03:26:28.224Z,7.90
2023-03-08T03:28:58.114Z,8.50
2023-03-08T03:31:31.113Z,5.10
2023-03-08T03:33:58.784Z,5.80
2023-03-08T03:36:27.681Z,6.67
2023-03-08T03:38:55.742Z,6.17
2023-03-08T03:41:24.390Z,6.40
2023-03-08T03:44:01.340Z,8.90
2023-03-08T03:46:31.494Z,6.00
2023-03-08T03:49:00.155Z,5.63
2023-03-08T03:51:33.410Z,4.70
2023-03-08T03:54:27.093Z,5.87
2023-03-08T03:56:58.764Z,5.90
2023-03-08T03:59:29.137Z,7.20
2023-03-08T04:01:58.486Z,5.23
2023-03-08T04:04:34.592Z,6.23
2023-03-08T04:07:03.274Z,9.50
2023-03-08T04:09:36.746Z,7.33
2023-03-08T04:12:09.791Z,7.00
2023-03-08T04:14:40.325Z,5.67
2023-03-08T04:17:10.235Z,5.77
2023-03-08T04:19:43.149Z,7.77
2023-03-08T04:22:12.704Z,10.23
2023-03-08T04:24:46.717Z,6.73
2023-03-08T04:27:19.926Z,5.10
2023-03-08T04:29:47.898Z,6.20
2023-03-08T04:32:17.557Z,7.50
2023-03-08T04:34:49.493Z,4.33
2023-03-08T04:37:21.139Z,7.63
2023-03-08T04:39:53.571Z,6.83
2023-03-08T04:42:21.128Z,7.57
2023-03-08T04:44:49.264Z,6.50
2023-03-08T04:47:22.042Z,5.40
2023-03-08T04:49:49.592Z,6.67
2023-03-08T04:52:17.416Z,7.93
2023-03-08T04:54:45.659Z,6.90
2023-03-08T04:57:21.039Z,5.53
2023-03-08T04:59:50.310Z,8.27
2023-03-08T05:02:18.697Z,3.87
2023-03-08T05:04:50.197Z,4.33
2023-03-08T05:07:17.755Z,5.53
2023-03-08T05:09:46.358Z,7.53
2023-03-08T05:12:14.768Z,8.73
2023-03-08T05:14:55.478Z,5.17
2023-03-08T05:17:24.842Z,14.63
2023-03-08T05:19:53.850Z,6.80
2023-03-08T05:22:26.543Z,8.03
2023-03-08T05:24:57.427Z,5.30
2023-03-08T05:27:25.340Z,9.00
2023-03-08T05:29:53.643Z,5.57
2023-03-08T05:32:21.118Z,5.37
2023-03-08T05:34:50.467Z,9.30
2023-03-08T05:37:27.475Z,8.30
2023-03-08T05:39:57.300Z,3.70
2023-03-08T05:42:27.379Z,7.37
2023-03-08T05:44:56.316Z,6.60
2023-03-08T05:47:30.190Z,7.53
2023-03-08T05:49:57.746Z,4.37
2023-03-08T05:52:26.669Z,9.00
2023-03-08T05:54:54.192Z,9.70
2023-03-08T05:57:22.095Z,8.30
2023-03-08T05:59:51.504Z,8.50
2023-03-08T06:02:22.421Z,8.63
2023-03-08T06:04:53.662Z,12.90
2023-03-08T06:07:27.484Z,12.00
2023-03-08T06:10:06.673Z,12.13
2023-03-08T06:12:34.635Z,10.50
2023-03-08T06:15:07.922Z,10.00
2023-03-08T06:17:40.917Z,15.00
2023-03-08T06:20:10.488Z,19.37
2023-03-08T06:22:42.908Z,17.40
2023-03-08T06:25:11.911Z,15.40
2023-03-08T06:27:40.452Z,13.90
2023-03-08T06:30:22.190Z,15.30
2023-03-08T06:32:50.154Z,17.10
2023-03-08T06:35:17.925Z,13.77
2023-03-08T06:37:52.532Z,23.90
2023-03-08T06:40:20.951Z,17.33
2023-03-08T06:42:48.634Z,26.23
2023-03-08T06:45:16.980Z,20.27
2023-03-08T06:47:44.547Z,20.20
2023-03-08T06:50:13.578Z,14.83
2023-03-08T06:52:44.349Z,20.80
2023-03-08T06:55:14.369Z,18.93
2023-03-08T06:57:42.443Z,21.83
2023-03-08T07:00:12.239Z,16.80
2023-03-08T07:02:39.778Z,20.23
2023-03-08T07:05:08.235Z,19.17
2023-03-08T07:07:36.680Z,19.63
2023-03-08T07:10:05.529Z,13.80
2023-03-08T07:12:36.616Z,17.00
2023-03-08T07:15:04.449Z,15.83
2023-03-08T07:17:34.001Z,18.60
2023-03-08T07:20:01.553Z,14.33
2023-03-08T07:22:30.962Z,16.63
2023-03-08T07:24:58.639Z,13.37
2023-03-08T07:27:26.455Z,17.10
2023-03-08T07:29:56.341Z,13.87
2023-03-08T07:32:28.694Z,19.67
2023-03-08T07:34:56.476Z,17.73
2023-03-08T07:37:24.513Z,17.60
2023-03-08T07:39:52.196Z,16.57
2023-03-08T07:42:19.773Z,17.83
2023-03-08T07:44:53.014Z,22.03
2023-03-08T07:47:22.219Z,23.23
2023-03-08T07:49:49.751Z,19.67
2023-03-08T07:52:17.344Z,17.40
2023-03-08T07:54:44.850Z,19.33
2023-03-08T07:57:14.090Z,19.13
2023-03-08T07:59:41.861Z,18.83
2023-03-08T08:02:11.455Z,17.20
2023-03-08T08:04:40.636Z,20.37
2023-03-08T08:07:11.764Z,19.93
2023-03-08T08:09:39.583Z,19.63
2023-03-08T08:12:07.490Z,21.13
2023-03-08T08:14:35.096Z,21.60
2023-03-08T08:17:02.564Z,23.57
2023-03-08T08:19:31.921Z,23.00
2023-03-08T08:22:01.068Z,19.87
2023-03-08T08:24:29.141Z,32.63
2023-03-08T08:26:56.791Z,17.77
2023-03-08T08:29:24.604Z,22.40
2023-03-08T08:31:53.008Z,23.33
2023-03-08T08:34:20.799Z,19.57
2023-03-08T08:36:48.330Z,18.67
2023-03-08T08:39:17.314Z,17.43
2023-03-08T08:41:45.064Z,19.23
2023-03-08T08:44:12.611Z,18.00
2023-03-08T08:46:40.649Z,17.00
2023-03-08T08:49:08.235Z,21.90
2023-03-08T08:51:35.716Z,17.67
2023-03-08T08:54:03.466Z,15.33
2023-03-08T08:56:32.909Z,16.53
2023-03-08T08:59:03.508Z,16.17
2023-03-08T09:01:33.204Z,17.20
2023-03-08T09:04:01.185Z,21.83
2023-03-08T09:06:29.877Z,18.40
2023-03-08T09:08:58.954Z,19.60
2023-03-08T09:11:27.782Z,19.77
2023-03-08T09:13:56.659Z,17.10
2023-03-08T09:16:26.252Z,22.13
2023-03-08T09:18:56.180Z,22.47
2023-03-08T09:21:24.123Z,18.60
2023-03-08T09:23:51.992Z,26.37
2023-03-08T09:26:21.066Z,23.20
2023-03-08T09:28:48.912Z,26.53
2023-03-08T09:31:21.424Z,20.73
2023-03-08T09:33:51.817Z,21.00
2023-03-08T09:36:19.983Z,29.07
2023-03-08T09:38:49.095Z,25.40
2023-03-08T09:41:35.498Z,26.47
2023-03-08T09:44:53.085Z,30.60
2023-03-08T09:47:30.066Z,30.87
2023-03-08T09:50:05.789Z,22.70
2023-03-08T09:52:38.301Z,24.73
2023-03-08T09:55:11.519Z,23.37
2023-03-08T09:57:45.443Z,23.33
2023-03-08T10:00:21.185Z,23.37
2023-03-08T10:03:00.549Z,26.47
2023-03-08T10:05:31.569Z,29.20
2023-03-08T10:08:05.035Z,28.77
2023-03-08T10:10:40.267Z,34.57
2023-03-08T10:13:30.396Z,22.37
2023-03-08T10:16:05.884Z,20.67
2023-03-08T10:18:40.044Z,22.20
2023-03-08T10:21:09.328Z,24.67
2023-03-08T10:23:37.173Z,22.87
2023-03-08T10:26:11.717Z,27.60
2023-03-08T10:28:39.722Z,21.67
2023-03-08T10:31:21.251Z,18.13
2023-03-08T10:33:53.791Z,18.13
2023-03-08T10:36:22.671Z,23.23
2023-03-08T10:39:04.846Z,19.10
2023-03-08T10:41:33.723Z,16.63
2023-03-08T10:44:01.633Z,27.27
2023-03-08T10:46:32.803Z,18.43
2023-03-08T10:49:20.193Z,18.60
2023-03-08T10:51:56.420Z,18.43
2023-03-08T10:54:24.083Z,25.63
2023-03-08T10:56:54.882Z,22.67
2023-03-08T10:59:28.102Z,12.90
2023-03-08T11:01:59.064Z,14.83
2023-03-08T11:04:28.987Z,17.43
2023-03-08T11:06:56.634Z,18.43
2023-03-08T11:09:27.870Z,18.00
2023-03-08T11:11:56.412Z,20.80
2023-03-08T11:14:24.430Z,18.73
2023-03-08T11:17:15.822Z,20.70
2023-03-08T11:20:00.740Z,20.20
2023-03-08T11:22:39.181Z,19.33
2023-03-08T11:25:19.155Z,16.27
2023-03-08T11:27:59.207Z,13.40
2023-03-08T11:30:36.649Z,17.27
2023-03-08T11:33:22.727Z,13.37
2023-03-08T11:35:55.610Z,14.57
2023-03-08T11:38:26.373Z,20.20
2023-03-08T11:41:01.027Z,17.80
2023-03-08T11:43:49.803Z,14.97
2023-03-08T11:46:21.620Z,20.43
2023-03-08T11:49:17.108Z,14.47
2023-03-08T11:51:53.085Z,16.00
2023-03-08T11:54:37.006Z,17.17
2023-03-08T11:57:08.237Z,13.37
2023-03-08T11:59:38.189Z,16.70
2023-03-08T12:02:13.931Z,17.00
2023-03-08T12:04:45.721Z,17.63
2023-03-08T12:07:19.125Z,15.17
2023-03-08T12:09:54.039Z,12.30
2023-03-08T12:12:26.098Z,13.50
2023-03-08T12:14:57.534Z,15.00
2023-03-08T12:17:27.850Z,17.87
2023-03-08T12:19:56.181Z,16.53
2023-03-08T12:22:41.454Z,17.63
2023-03-08T12:25:15.722Z,16.90
2023-03-08T12:27:46.421Z,12.97
2023-03-08T12:30:18.942Z,12.43
2023-03-08T12:32:48.097Z,15.33
2023-03-08T12:35:27.706Z,11.40
2023-03-08T12:38:01.876Z,12.17
2023-03-08T12:40:41.592Z,13.37
2023-03-08T12:43:12.122Z,12.93
2023-03-08T12:45:43.931Z,15.03
2023-03-08T12:48:24.106Z,15.00
2023-03-08T12:51:02.409Z,24.40
2023-03-08T12:53:42.824Z,16.40
2023-03-08T12:56:23.883Z,15.20
2023-03-08T12:58:54.552Z,14.27
2023-03-08T13:01:33.509Z,15.13
2023-03-08T13:04:01.942Z,13.40
2023-03-08T13:07:11.923Z,13.70
2023-03-08T13:09:50.841Z,14.30
2023-03-08T13:12:25.586Z,15.63
2023-03-08T13:15:02.067Z,14.13
2023-03-08T13:17:35.473Z,18.53
2023-03-08T13:20:09.578Z,13.43
2023-03-08T13:22:42.946Z,15.43
2023-03-08T13:25:22.511Z,22.93
2023-03-08T13:27:56.283Z,17.17
2023-03-08T13:30:26.642Z,11.33
2023-03-08T13:32:55.054Z,14.73
2023-03-08T13:35:23.470Z,13.97
2023-03-08T13:37:56.046Z,12.07
2023-03-08T13:40:27.007Z,14.30
2023-03-08T13:42:55.909Z,16.47
2023-03-08T13:45:24.261Z,12.10
2023-03-08T13:47:52.487Z,13.13
2023-03-08T13:50:22.212Z,12.87
2023-03-08T13:52:51.456Z,13.53
2023-03-08T13:55:22.099Z,12.13
2023-03-08T13:57:55.358Z,12.33
2023-03-08T14:00:29.196Z,12.80
2023-03-08T14:03:04.116Z,18.77
2023-03-08T14:05:33.170Z,14.20
2023-03-08T14:08:03.083Z,12.57
2023-03-08T14:10:38.273Z,12.17
2023-03-08T14:13:18.322Z,10.83
2023-03-08T14:15:50.677Z,10.23
2023-03-08T14:18:26.906Z,9.87
2023-03-08T14:21:02.411Z,10.70
2023-03-08T14:23:33.575Z,11.43
2023-03-08T14:26:01.988Z,19.07
2023-03-08T14:28:41.313Z,13.63
2023-03-08T14:31:26.198Z,12.40
2023-03-08T14:33:59.133Z,9.17
2023-03-08T14:36:28.040Z,10.50
2023-03-08T14:38:56.254Z,13.90
2023-03-08T14:41:31.534Z,7.97
2023-03-08T14:44:00.891Z,10.10
2023-03-08T14:46:30.014Z,7.40
2023-03-08T14:48:59.803Z,6.73
2023-03-08T14:51:30.521Z,6.07
2023-03-08T14:54:00.223Z,8.40
2023-03-08T14:56:29.995Z,9.23
2023-03-08T14:59:02.374Z,5.30
2023-03-08T15:01:32.269Z,8.53
2023-03-08T15:04:00.563Z,6.00
2023-03-08T15:06:29.782Z,5.37
2023-03-08T15:08:57.702Z,5.67
2023-03-08T15:11:25.610Z,6.97
2023-03-08T15:13:54.517Z,8.40
2023-03-08T15:16:28.711Z,6.97
2023-03-08T15:18:57.447Z,6.10
2023-03-08T15:21:29.404Z,6.00
2023-03-08T15:23:57.969Z,8.07
2023-03-08T15:26:31.770Z,5.37
2023-03-08T15:29:21.666Z,8.40
2023-03-08T15:31:52.165Z,7.40
2023-03-08T15:34:21.679Z,9.60
2023-03-08T15:36:51.904Z,4.63
2023-03-08T15:39:23.995Z,7.37
2023-03-08T15:41:52.337Z,7.03
2023-03-08T15:44:29.592Z,5.60
2023-03-08T15:47:05.064Z,6.43
2023-03-08T15:49:40.908Z,4.07
2023-03-08T15:52:12.862Z,7.07
2023-03-08T15:54:47.521Z,7.87
2023-03-08T15:57:18.440Z,5.10
2023-03-08T15:59:47.644Z,4.93
2023-03-08T16:02:20.999Z,6.80
2023-03-08T16:04:49.970Z,3.97
2023-03-08T16:07:24.953Z,7.53
2023-03-08T16:09:53.899Z,8.77
2023-03-08T16:12:21.650Z,5.57
2023-03-08T16:14:50.534Z,4.20
2023-03-08T16:17:20.033Z,5.60
2023-03-08T16:19:48.658Z,4.90
2023-03-08T16:22:16.472Z,7.67
2023-03-08T16:24:44.890Z,5.33
2023-03-08T16:27:12.908Z,4.50
2023-03-08T16:29:40.507Z,5.33
2023-03-08T16:32:08.723Z,6.93
2023-03-08T16:34:38.196Z,5.50
2023-03-08T16:37:07.497Z,7.23
2023-03-08T16:39:35.255Z,7.30
2023-03-08T16:42:03.026Z,5.87
2023-03-08T16:44:31.618Z,5.50
2023-03-08T16:46:59.247Z,3.60
2023-03-08T16:49:28.531Z,6.63
2023-03-08T16:51:57.930Z,9.57
2023-03-08T16:54:27.827Z,6.90
2023-03-08T16:56:58.758Z,9.73
2023-03-08T16:59:28.993Z,6.17
2023-03-08T17:01:56.714Z,7.80
2023-03-08T17:04:24.491Z,9.93
2023-03-08T17:06:52.059Z,6.10
2023-03-08T17:09:21.080Z,7.00
2023-03-08T17:11:48.785Z,6.23
2023-03-08T17:14:16.405Z,8.30
2023-03-08T17:16:44.519Z,7.30
2023-03-08T17:19:14.321Z,7.17
2023-03-08T17:21:43.003Z,5.63
2023-03-08T17:24:13.541Z,9.00
2023-03-08T17:26:48.476Z,6.70
2023-03-08T17:29:16.966Z,7.87
2023-03-08T17:31:46.117Z,9.03
2023-03-08T17:34:13.902Z,10.27
2023-03-08T17:36:41.918Z,6.87
2023-03-08T17:39:10.105Z,5.43
2023-03-08T17:41:38.516Z,6.60
2023-03-08T17:44:08.027Z,9.47
2023-03-08T17:46:35.929Z,8.60
2023-03-08T17:49:03.864Z,6.03
2023-03-08T17:51:32.905Z,8.03
2023-03-08T17:54:03.013Z,5.60
2023-03-08T17:56:32.345Z,7.90
2023-03-08T17:59:01.508Z,8.40
2023-03-08T18:01:32.330Z,6.47
2023-03-08T18:04:00.942Z,6.43
2023-03-08T18:06:29.930Z,6.00
2023-03-08T18:08:58.504Z,6.43
2023-03-08T18:11:26.900Z,7.57
2023-03-08T18:13:54.982Z,6.37
2023-03-08T18:16:23.687Z,7.23
2023-03-08T18:18:53.529Z,6.37
2023-03-08T18:21:22.260Z,7.00
2023-03-08T18:23:50.788Z,9.60
2023-03-08T18:26:19.146Z,10.10
2023-03-08T18:28:47.137Z,6.00
2023-03-08T18:31:16.747Z,9.67
2023-03-08T18:33:46.014Z,6.47
2023-03-08T18:36:16.285Z,7.63
2023-03-08T18:38:44.539Z,5.97
2023-03-08T18:41:13.783Z,8.30
2023-03-08T18:43:41.912Z,5.67
2023-03-08T18:46:11.993Z,8.80
2023-03-08T18:48:40.408Z,8.40
2023-03-08T18:51:08.230Z,6.47
2023-03-08T18:53:37.866Z,10.10
2023-03-08T18:56:05.905Z,9.03
2023-03-08T18:58:34.054Z,8.37
2023-03-08T19:01:02.853Z,8.30
2023-03-08T19:03:34.829Z,13.13
2023-03-08T19:06:03.381Z,8.97
2023-03-08T19:08:31.204Z,8.97
2023-03-08T19:11:05.104Z,9.80
2023-03-08T19:13:34.864Z,8.07
2023-03-08T19:16:11.284Z,9.70
2023-03-08T19:18:39.955Z,9.53
2023-03-08T19:21:13.910Z,6.73
2023-03-08T19:23:46.745Z,6.80
2023-03-08T19:26:46.330Z,16.43
2023-03-08T19:29:27.260Z,10.27
2023-03-08T19:32:05.992Z,9.83
2023-03-08T19:34:36.312Z,7.60
2023-03-08T19:37:07.108Z,10.40
2023-03-08T19:39:42.514Z,10.57
2023-03-08T19:42:19.529Z,12.60
2023-03-08T19:44:51.671Z,8.80
2023-03-08T19:47:21.240Z,9.83
2023-03-08T19:49:49.959Z,10.20
2023-03-08T19:52:20.544Z,11.97
2023-03-08T19:54:50.321Z,12.70
2023-03-08T19:57:22.682Z,9.30
2023-03-08T19:59:57.723Z,11.20
2023-03-08T20:02:36.940Z,9.20
2023-03-08T20:05:09.574Z,9.90
2023-03-08T20:07:40.493Z,10.67
2023-03-08T20:10:29.566Z,9.93
2023-03-08T20:13:07.266Z,9.50
2023-03-08T20:15:38.285Z,10.00
2023-03-08T20:18:07.949Z,8.47
2023-03-08T20:20:43.842Z,12.60
2023-03-08T20:23:23.838Z,12.57
2023-03-08T20:25:58.426Z,10.43
2023-03-08T20:28:31.226Z,14.13
2023-03-08T20:31:02.050Z,10.13
2023-03-08T20:33:33.891Z,15.43
2023-03-08T20:36:02.546Z,9.43
2023-03-08T20:38:40.858Z,9.90
2023-03-08T20:41:18.683Z,9.50
2023-03-08T20:43:56.251Z,9.97
2023-03-08T20:46:25.856Z,10.67
2023-03-08T20:48:57.059Z,12.37
2023-03-08T20:51:24.939Z,9.70
2023-03-08T20:53:54.397Z,8.77
2023-03-08T20:56:23.290Z,12.03
2023-03-08T20:58:58.785Z,9.23
2023-03-08T21:01:31.480Z,14.83
2023-03-08T21:04:01.109Z,8.90
2023-03-08T21:06:30.495Z,9.33
2023-03-08T21:08:59.538Z,10.73
2023-03-08T21:11:27.964Z,10.43
2023-03-08T21:16:48.151Z,8.10
2023-03-08T21:19:24.427Z,9.90
2023-03-08T21:22:03.236Z,10.47
2023-03-08T21:24:40.408Z,11.83
2023-03-08T21:27:17.325Z,9.53
2023-03-08T21:29:58.198Z,8.63
2023-03-08T21:32:54.409Z,8.93
2023-03-08T21:35:40.168Z,7.57
2023-03-08T21:38:12.476Z,9.23
2023-03-08T21:40:41.810Z,9.03
2023-03-08T21:43:30.020Z,9.20
2023-03-08T21:46:05.584Z,8.47
2023-03-08T21:48:48.444Z,9.50
2023-03-08T21:51:23.757Z,8.93
2023-03-08T21:54:10.397Z,9.00
2023-03-08T21:57:09.925Z,7.37
2023-03-08T22:00:03.725Z,8.37
2023-03-08T22:03:19.606Z,10.40
2023-03-08T22:06:39.400Z,5.97
2023-03-08T22:16:35.636Z,9.60
2023-03-08T22:19:42.041Z,9.90
2023-03-08T22:22:11.415Z,12.30
2023-03-08T22:24:38.927Z,8.03
2023-03-08T22:27:06.797Z,6.50
2023-03-08T22:29:34.754Z,6.33
2023-03-08T22:32:02.715Z,7.50
2023-03-08T22:34:32.126Z,7.67
2023-03-08T22:37:00.399Z,7.37
2023-03-08T22:39:28.993Z,7.10
2023-03-08T22:41:58.154Z,7.53
2023-03-08T22:44:26.324Z,8.30
2023-03-08T22:46:54.667Z,8.37
2023-03-08T22:49:26.128Z,9.70
2023-03-08T22:51:55.303Z,8.37
2023-03-08T22:54:24.020Z,9.37
2023-03-08T22:56:52.100Z,8.13
2023-03-08T23:02:14.425Z,7.10
2023-03-08T23:04:42.827Z,8.37
2023-03-08T23:07:12.165Z,12.60
2023-03-08T23:09:39.897Z,7.73
2023-03-08T23:12:08.239Z,8.40
2023-03-08T23:14:36.448Z,7.60
2023-03-08T23:17:04.252Z,6.20
2023-03-08T23:19:31.964Z,6.47
2023-03-08T23:21:59.573Z,8.10
2023-03-08T23:24:28.966Z,7.63
2023-03-08T23:27:01.782Z,6.20
2023-03-08T23:29:29.407Z,12.17
2023-03-08T23:31:57.337Z,7.90
2023-03-08T23:34:25.028Z,7.83
2023-03-08T23:36:52.719Z,7.57
2023-03-08T23:39:20.320Z,5.50
2023-03-08T23:41:49.340Z,12.67
2023-03-08T23:44:18.201Z,8.80
2023-03-08T23:46:46.338Z,7.10
2023-03-08T23:49:16.907Z,7.70
2023-03-08T23:51:44.617Z,7.47
2023-03-08T23:54:13.314Z,6.73
2023-03-08T23:56:41.656Z,6.30
2023-03-08T23:59:13.118Z,5.93
